createdAt,value
2018-09-28T00:01:12.541Z,58.70
2018-09-28T00:03:45.949Z,58.30
2018-09-28T00:06:20.466Z,58.30
2018-09-28T00:08:54.116Z,58.60
2018-09-28T00:11:27.768Z,58.60
2018-09-28T00:14:07.930Z,59.20
2018-09-28T00:16:41.392Z,58.70
2018-09-28T00:19:21.308Z,59.30
2018-09-28T00:21:54.825Z,59.40
2018-09-28T00:24:28.511Z,59.50
2018-09-28T00:27:01.945Z,59.40
2018-09-28T00:29:36.551Z,59.40
2018-09-28T00:32:10.101Z,59.80
2018-09-28T00:34:43.568Z,60.60
2018-09-28T00:37:17.116Z,60.10
2018-09-28T00:39:50.727Z,60.30
2018-09-28T00:42:24.251Z,60.50
2018-09-28T00:44:57.736Z,60.80
2018-09-28T00:47:31.311Z,60.80
2018-09-28T00:50:04.756Z,61.10
2018-09-28T00:52:38.227Z,61.50
2018-09-28T00:55:11.575Z,61.60
2018-09-28T00:57:45.053Z,61.80
2018-09-28T01:00:24.926Z,61.80
2018-09-28T01:02:58.253Z,61.80
2018-09-28T01:05:32.069Z,61.90
2018-09-28T01:08:05.510Z,62.60
2018-09-28T01:10:39.193Z,62.00
2018-09-28T01:13:13.894Z,62.40
2018-09-28T01:15:47.675Z,64.00
2018-09-28T01:18:21.107Z,63.20
2018-09-28T01:20:54.701Z,63.20
2018-09-28T01:23:30.405Z,63.30
2018-09-28T01:26:03.925Z,63.90
2018-09-28T01:28:37.444Z,63.70
2018-09-28T01:31:17.543Z,64.30
2018-09-28T01:33:52.291Z,64.20
2018-09-28T01:36:26.052Z,64.30
2018-09-28T01:38:59.777Z,64.50
2018-09-28T01:41:34.384Z,64.60
2018-09-28T01:44:07.868Z,64.60
2018-09-28T01:46:41.443Z,64.70
2018-09-28T01:49:15.931Z,65.00
2018-09-28T01:51:56.069Z,65.60
2018-09-28T01:54:29.716Z,65.90
2018-09-28T01:57:03.349Z,65.80
2018-09-28T01:59:36.920Z,65.90
2018-09-28T02:02:10.634Z,66.90
2018-09-28T02:04:44.069Z,67.60
2018-09-28T02:07:17.705Z,68.20
2018-09-28T02:09:52.175Z,68.10
2018-09-28T02:12:25.638Z,68.10
2018-09-28T02:15:05.546Z,68.00
2018-09-28T02:17:39.882Z,68.30
2018-09-28T02:20:13.496Z,68.80
2018-09-28T02:22:46.962Z,69.20
2018-09-28T02:25:26.916Z,69.00
2018-09-28T02:28:00.461Z,68.90
2018-09-28T02:30:34.196Z,69.00
2018-09-28T02:33:07.568Z,69.90
2018-09-28T02:35:42.170Z,69.70
2018-09-28T02:38:15.651Z,69.60
2018-09-28T02:40:49.057Z,69.60
2018-09-28T02:43:22.468Z,69.60
2018-09-28T02:46:02.494Z,69.80
2018-09-28T02:48:35.957Z,70.00
2018-09-28T02:51:09.549Z,70.20
2018-09-28T02:53:43.165Z,70.20
2018-09-28T02:56:22.161Z,70.80
2018-09-28T02:58:56.544Z,70.60
2018-09-28T03:01:29.907Z,71.00
2018-09-28T03:04:09.852Z,71.30
2018-09-28T03:06:43.540Z,71.20
2018-09-28T03:09:19.063Z,71.90
2018-09-28T03:11:54.601Z,72.00
2018-09-28T03:14:28.209Z,72.10
2018-09-28T03:17:02.730Z,72.20
2018-09-28T03:19:37.428Z,72.90
2018-09-28T03:22:11.120Z,73.30
2018-09-28T03:24:44.592Z,73.30
2018-09-28T03:27:18.143Z,73.50
2018-09-28T03:29:51.560Z,73.70
2018-09-28T03:32:25.298Z,73.70
2018-09-28T03:34:58.831Z,74.90
2018-09-28T03:37:32.305Z,74.30
2018-09-28T03:40:10.008Z,74.20
2018-09-28T03:42:43.483Z,75.40
2018-09-28T03:45:17.135Z,74.70
2018-09-28T03:47:50.628Z,75.00
2018-09-28T03:50:24.263Z,75.40
2018-09-28T03:52:57.869Z,76.00
2018-09-28T03:55:37.982Z,75.70
2018-09-28T03:58:11.442Z,75.60
2018-09-28T04:00:44.936Z,75.80
2018-09-28T04:03:19.407Z,75.90
2018-09-28T04:05:52.961Z,76.10
2018-09-28T04:08:33.081Z,76.20
2018-09-28T04:11:06.657Z,76.00
2018-09-28T04:13:46.370Z,75.90
2018-09-28T04:16:26.102Z,75.70
2018-09-28T04:18:59.565Z,75.60
2018-09-28T04:21:33.198Z,75.50
2018-09-28T04:24:06.900Z,75.30
2018-09-28T04:26:41.354Z,75.00
2018-09-28T04:29:15.814Z,74.90
2018-09-28T04:31:49.482Z,74.70
2018-09-28T04:34:22.919Z,74.60
2018-09-28T04:36:56.519Z,74.90
2018-09-28T04:39:30.923Z,73.80
2018-09-28T04:42:04.431Z,73.40
2018-09-28T04:44:38.211Z,73.30
2018-09-28T04:47:11.787Z,72.70
2018-09-28T04:49:45.216Z,72.40
2018-09-28T04:52:18.729Z,71.80
2018-09-28T04:54:52.138Z,71.60
2018-09-28T04:57:25.787Z,71.30
2018-09-28T05:00:06.193Z,71.20
2018-09-28T05:02:39.622Z,71.30
2018-09-28T05:05:13.349Z,71.00
2018-09-28T05:07:47.861Z,70.90
2018-09-28T05:10:21.357Z,70.40
2018-09-28T05:12:54.828Z,69.80
2018-09-28T05:15:28.303Z,69.40
2018-09-28T05:18:08.148Z,68.50
2018-09-28T05:20:48.078Z,68.00
2018-09-28T05:23:21.735Z,68.20
2018-09-28T05:25:55.384Z,67.80
2018-09-28T05:28:29.011Z,67.80
2018-09-28T05:31:03.652Z,67.60
2018-09-28T05:33:37.089Z,67.60
2018-09-28T05:36:10.533Z,67.50
2018-09-28T05:38:44.022Z,67.40
2018-09-28T05:41:17.720Z,68.00
2018-09-28T05:43:53.286Z,67.00
2018-09-28T05:46:27.779Z,66.80
2018-09-28T05:49:07.648Z,67.10
2018-09-28T05:51:41.323Z,67.00
2018-09-28T05:54:14.721Z,66.90
2018-09-28T05:56:48.288Z,66.80
2018-09-28T05:59:34.099Z,66.40
2018-09-28T06:02:19.540Z,66.40
2018-09-28T06:04:59.714Z,65.90
2018-09-28T06:07:39.533Z,66.40
2018-09-28T06:10:13.958Z,67.10
2018-09-28T06:12:53.751Z,66.30
2018-09-28T06:15:27.133Z,66.00
2018-09-28T06:18:01.866Z,65.90
2018-09-28T06:20:41.644Z,65.80
2018-09-28T06:23:21.427Z,65.70
2018-09-28T06:25:54.944Z,65.30
2018-09-28T06:28:28.269Z,64.90
2018-09-28T06:31:01.918Z,65.10
2018-09-28T06:33:36.413Z,65.30
2018-09-28T06:36:09.930Z,65.20
2018-09-28T06:38:49.587Z,65.20
2018-09-28T06:41:23.179Z,65.30
2018-09-28T06:43:56.531Z,64.60
2018-09-28T06:46:29.943Z,64.30
2018-09-28T06:49:03.499Z,64.50
2018-09-28T06:51:43.504Z,64.60
2018-09-28T06:54:23.429Z,64.50
2018-09-28T06:56:57.216Z,64.40
2018-09-28T06:59:30.636Z,64.60
2018-09-28T07:02:10.297Z,64.50
2018-09-28T07:04:44.150Z,63.90
2018-09-28T07:07:18.284Z,62.40
2018-09-28T07:09:51.933Z,62.50
2018-09-28T07:12:25.569Z,61.90
2018-09-28T07:15:00.247Z,61.80
2018-09-28T07:17:33.941Z,61.70
2018-09-28T07:20:07.616Z,61.10
2018-09-28T07:22:41.227Z,60.70
2018-09-28T07:25:14.805Z,61.00
2018-09-28T07:27:48.440Z,59.70
2018-09-28T07:30:25.211Z,59.50
2018-09-28T07:32:58.742Z,59.20
2018-09-28T07:35:32.336Z,58.60
2018-09-28T07:38:06.867Z,58.80
2018-09-28T07:40:46.790Z,58.60
2018-09-28T07:43:20.651Z,58.90
2018-09-28T07:45:54.279Z,58.80
2018-09-28T07:48:34.188Z,58.60
2018-09-28T07:51:07.859Z,58.90
2018-09-28T07:53:41.280Z,58.90
2018-09-28T07:56:14.856Z,58.80
2018-09-28T07:58:48.713Z,58.20
2018-09-28T08:01:28.652Z,57.80
2018-09-28T08:04:02.272Z,57.80
2018-09-28T08:06:40.888Z,56.80
2018-09-28T08:09:14.438Z,57.00
2018-09-28T08:11:48.033Z,57.70
2018-09-28T08:14:21.749Z,57.30
2018-09-28T08:16:55.320Z,57.60
2018-09-28T08:19:35.216Z,57.40
2018-09-28T08:22:08.728Z,57.50
2018-09-28T08:24:42.159Z,58.00
2018-09-28T08:27:22.193Z,58.10
2018-09-28T08:29:55.668Z,56.80
2018-09-28T08:32:29.327Z,56.10
2018-09-28T08:35:02.852Z,55.40
2018-09-28T08:37:36.294Z,54.40
2018-09-28T08:40:09.730Z,53.60
2018-09-28T08:42:43.208Z,52.70
2018-09-28T08:45:23.134Z,53.10
2018-09-28T08:48:03.034Z,52.80
2018-09-28T08:50:36.814Z,52.10
2018-09-28T08:53:10.321Z,51.50
2018-09-28T08:55:43.685Z,51.70
2018-09-28T08:58:23.505Z,51.40
2018-09-28T09:01:03.464Z,52.00
2018-09-28T09:03:37.300Z,51.70
2018-09-28T09:06:17.199Z,52.10
2018-09-28T09:08:50.688Z,52.00
2018-09-28T09:11:24.090Z,52.40
2018-09-28T09:13:57.575Z,52.20
2018-09-28T09:16:37.500Z,52.70
2018-09-28T09:19:17.457Z,52.60
2018-09-28T09:21:52.104Z,52.60
2018-09-28T09:24:32.045Z,53.40
2018-09-28T09:27:06.702Z,53.00
2018-09-28T09:29:40.165Z,51.80
2018-09-28T09:32:14.839Z,45.60
2018-09-28T09:34:48.346Z,40.10
2018-09-28T09:37:22.884Z,38.60
2018-09-28T09:40:02.793Z,37.60
2018-09-28T09:42:36.354Z,34.00
2018-09-28T09:45:09.900Z,33.80
2018-09-28T09:47:43.404Z,33.50
2018-09-28T09:50:24.519Z,35.70
2018-09-28T09:53:04.515Z,39.10
2018-09-28T09:55:38.132Z,42.60
2018-09-28T09:58:11.558Z,41.10
2018-09-28T10:00:50.764Z,40.00
2018-09-28T10:03:30.134Z,38.90
2018-09-28T10:06:03.597Z,39.30
2018-09-28T10:08:37.219Z,39.90
2018-09-28T10:11:11.282Z,41.20
2018-09-28T10:13:45.861Z,42.70
2018-09-28T10:16:26.045Z,43.20
2018-09-28T10:18:59.655Z,42.80
2018-09-28T10:21:33.520Z,43.30
2018-09-28T10:24:07.054Z,43.90
2018-09-28T10:26:41.024Z,44.30
2018-09-28T10:29:21.068Z,44.70
2018-09-28T10:31:55.589Z,44.30
2018-09-28T10:34:29.203Z,44.90
2018-09-28T10:37:03.083Z,45.10
2018-09-28T10:39:37.536Z,45.30
2018-09-28T10:42:11.015Z,46.00
2018-09-28T10:44:51.080Z,46.40
2018-09-28T10:47:25.465Z,47.00
2018-09-28T10:49:59.075Z,47.10
2018-09-28T10:52:32.607Z,46.90
2018-09-28T10:55:06.231Z,46.60
2018-09-28T10:57:41.845Z,44.60
2018-09-28T11:00:15.458Z,45.40
2018-09-28T11:02:49.000Z,45.60
2018-09-28T11:05:22.641Z,45.10
2018-09-28T11:07:59.456Z,43.70
2018-09-28T11:10:33.036Z,42.10
2018-09-28T11:13:06.785Z,41.80
2018-09-28T11:15:40.367Z,42.10
2018-09-28T11:18:13.752Z,43.40
2018-09-28T11:20:54.334Z,42.60
2018-09-28T11:23:27.866Z,41.60
2018-09-28T11:26:01.537Z,41.10
2018-09-28T11:28:36.145Z,42.10
2018-09-28T11:31:16.087Z,43.00
2018-09-28T11:33:55.881Z,43.80
2018-09-28T11:36:29.708Z,44.20
2018-09-28T11:39:09.787Z,44.50
2018-09-28T11:41:43.225Z,45.20
2018-09-28T11:44:23.336Z,45.30
2018-09-28T11:47:03.465Z,45.70
2018-09-28T11:49:44.374Z,46.90
2018-09-28T11:52:17.879Z,46.60
2018-09-28T11:54:57.974Z,44.20
2018-09-28T11:57:31.400Z,43.60
2018-09-28T12:00:11.880Z,42.30
2018-09-28T12:02:45.284Z,43.10
2018-09-28T12:05:18.895Z,43.40
2018-09-28T12:07:58.816Z,43.90
2018-09-28T12:10:32.653Z,43.20
2018-09-28T12:13:06.637Z,42.30
2018-09-28T12:15:40.555Z,42.50
2018-09-28T12:18:20.995Z,42.60
2018-09-28T12:21:01.297Z,41.80
2018-09-28T12:23:35.145Z,40.70
2018-09-28T12:26:09.177Z,40.40
2018-09-28T12:28:43.015Z,40.30
2018-09-28T12:31:23.178Z,40.60
2018-09-28T12:34:03.487Z,41.30
2018-09-28T12:36:37.305Z,41.10
2018-09-28T12:39:12.147Z,40.30
2018-09-28T12:41:45.971Z,39.50
2018-09-28T12:44:26.206Z,40.80
2018-09-28T12:47:06.299Z,40.40
2018-09-28T12:49:46.662Z,39.90
2018-09-28T12:52:20.739Z,37.50
2018-09-28T12:55:01.088Z,36.90
2018-09-28T12:57:34.913Z,38.80
2018-09-28T13:01:38.254Z,38.30
2018-09-28T13:04:19.211Z,38.30
2018-09-28T13:06:52.931Z,36.10
2018-09-28T13:09:32.899Z,35.20
2018-09-28T13:12:12.986Z,34.40
2018-09-28T13:14:46.468Z,33.50
2018-09-28T13:17:19.933Z,34.30
2018-09-28T13:19:53.405Z,36.30
2018-09-28T13:22:26.894Z,37.70
2018-09-28T13:25:00.409Z,36.50
2018-09-28T13:27:40.299Z,33.20
2018-09-28T13:30:14.018Z,31.70
2018-09-28T13:32:47.821Z,31.60
2018-09-28T13:35:22.477Z,31.60
2018-09-28T13:38:02.430Z,29.90
2018-09-28T13:40:36.191Z,30.10
2018-09-28T13:43:15.931Z,29.30
2018-09-28T13:45:49.603Z,27.80
2018-09-28T13:48:25.185Z,26.60
2018-09-28T13:50:58.819Z,27.00
2018-09-28T13:53:38.864Z,27.40
2018-09-28T13:56:12.347Z,27.80
2018-09-28T13:58:46.144Z,28.00
2018-09-28T14:01:19.717Z,28.00
2018-09-28T14:03:53.308Z,28.10
2018-09-28T14:06:26.905Z,27.40
2018-09-28T14:09:08.377Z,28.60
2018-09-28T14:11:41.858Z,27.70
2018-09-28T14:14:15.453Z,28.00
2018-09-28T14:16:48.974Z,27.30
2018-09-28T14:19:23.618Z,27.30
2018-09-28T14:21:57.100Z,28.60
2018-09-28T14:24:30.614Z,30.90
2018-09-28T14:27:05.154Z,32.40
2018-09-28T14:29:38.885Z,30.00
2018-09-28T14:32:18.866Z,28.80
2018-09-28T14:34:58.763Z,28.70
2018-09-28T14:37:32.316Z,27.50
2018-09-28T14:40:12.284Z,27.40
2018-09-28T14:42:52.127Z,26.90
2018-09-28T14:45:25.672Z,26.30
2018-09-28T14:47:59.104Z,25.80
2018-09-28T14:50:39.575Z,25.30
2018-09-28T14:53:19.440Z,24.90
2018-09-28T14:56:01.079Z,25.60
2018-09-28T14:58:35.608Z,26.60
2018-09-28T15:01:15.617Z,27.10
2018-09-28T15:03:49.062Z,28.30
2018-09-28T15:06:29.683Z,29.10
2018-09-28T15:09:04.517Z,29.70
2018-09-28T15:11:44.565Z,30.50
2018-09-28T15:14:18.115Z,31.60
2018-09-28T15:16:56.147Z,32.50
2018-09-28T15:19:36.291Z,33.00
2018-09-28T15:22:10.650Z,34.10
2018-09-28T15:24:44.286Z,35.10
2018-09-28T15:27:17.957Z,36.20
2018-09-28T15:29:51.555Z,36.30
2018-09-28T15:32:31.505Z,36.30
2018-09-28T15:35:05.206Z,36.80
2018-09-28T15:37:38.610Z,37.00
2018-09-28T15:40:13.054Z,37.50
2018-09-28T15:42:53.032Z,37.80
2018-09-28T15:45:32.967Z,37.80
2018-09-28T15:48:07.565Z,38.30
2018-09-28T15:50:47.525Z,38.00
2018-09-28T15:53:21.299Z,38.00
2018-09-28T15:56:01.028Z,38.20
2018-09-28T15:58:40.979Z,38.20
2018-09-28T16:01:15.389Z,38.90
2018-09-28T16:03:55.553Z,38.90
2018-09-28T16:06:29.658Z,39.10
2018-09-28T16:09:04.128Z,37.90
2018-09-28T16:11:38.012Z,37.90
2018-09-28T16:14:12.171Z,38.30
2018-09-28T16:16:47.560Z,38.20
2018-09-28T16:19:27.617Z,38.80
2018-09-28T16:22:01.386Z,39.20
2018-09-28T16:24:35.423Z,39.20
2018-09-28T16:27:15.685Z,38.80
2018-09-28T16:29:49.652Z,38.70
2018-09-28T16:32:23.409Z,38.80
2018-09-28T16:34:57.323Z,39.00
2018-09-28T16:37:31.290Z,38.30
2018-09-28T16:40:05.056Z,38.50
2018-09-28T16:42:39.016Z,38.60
2018-09-28T16:45:12.861Z,38.50
2018-09-28T16:47:46.626Z,38.70
2018-09-28T16:50:20.343Z,38.70
2018-09-28T16:52:54.167Z,38.80
2018-09-28T16:55:27.676Z,38.50
2018-09-28T16:58:02.740Z,38.50
2018-09-28T17:00:37.670Z,38.80
2018-09-28T17:03:11.310Z,38.70
2018-09-28T17:05:45.039Z,38.50
2018-09-28T17:08:18.786Z,38.80
2018-09-28T17:10:53.336Z,38.70
2018-09-28T17:13:27.842Z,38.70
2018-09-28T17:16:01.521Z,38.80
2018-09-28T17:18:41.320Z,38.80
2018-09-28T17:21:14.931Z,38.60
2018-09-28T17:23:55.012Z,38.60
2018-09-28T17:26:28.659Z,38.80
2018-09-28T17:29:02.213Z,39.10
2018-09-28T17:31:42.199Z,39.50
2018-09-28T17:34:22.267Z,39.80
2018-09-28T17:36:55.807Z,40.20
2018-09-28T17:39:29.701Z,41.30
2018-09-28T17:42:10.821Z,41.00
2018-09-28T17:44:44.532Z,41.30
2018-09-28T17:47:18.227Z,41.60
2018-09-28T17:49:52.077Z,41.90
2018-09-28T17:52:25.659Z,42.00
2018-09-28T17:54:59.321Z,42.10
2018-09-28T17:57:32.976Z,42.40
2018-09-28T18:00:06.760Z,42.40
2018-09-28T18:02:46.921Z,42.70
2018-09-28T18:05:20.872Z,42.70
2018-09-28T18:07:54.744Z,42.90
2018-09-28T18:10:34.669Z,43.10
2018-09-28T18:13:08.577Z,43.40
2018-09-28T18:15:48.726Z,43.90
2018-09-28T18:18:22.531Z,44.30
2018-09-28T18:21:02.437Z,44.30
2018-09-28T18:23:42.427Z,44.40
2018-09-28T18:26:22.646Z,44.60
2018-09-28T18:29:02.782Z,44.60
2018-09-28T18:31:42.872Z,44.90
2018-09-28T18:34:17.376Z,45.70
2018-09-28T18:36:52.128Z,45.30
2018-09-28T18:39:26.736Z,45.30
2018-09-28T18:42:00.306Z,45.50
2018-09-28T18:44:33.856Z,45.30
2018-09-28T18:47:07.603Z,45.20
2018-09-28T18:49:47.727Z,45.30
2018-09-28T18:52:27.867Z,45.50
2018-09-28T18:55:02.720Z,45.40
2018-09-28T18:57:42.928Z,45.60
2018-09-28T19:00:16.634Z,45.70
2018-09-28T19:02:50.403Z,46.00
2018-09-28T19:05:24.111Z,46.20
2018-09-28T19:07:57.976Z,46.30
2018-09-28T19:10:37.973Z,46.40
2018-09-28T19:13:18.148Z,46.80
2018-09-28T19:15:51.834Z,46.80
2018-09-28T19:18:25.472Z,46.80
2018-09-28T19:20:58.993Z,46.80
2018-09-28T19:23:38.976Z,47.10
2018-09-28T19:26:12.713Z,47.40
2018-09-28T19:28:46.595Z,47.30
2018-09-28T19:31:26.775Z,47.40
2018-09-28T19:34:00.353Z,47.30
2018-09-28T19:36:35.016Z,47.20
2018-09-28T19:39:10.236Z,47.20
2018-09-28T19:41:44.904Z,47.40
2018-09-28T19:44:24.825Z,47.40
2018-09-28T19:47:04.908Z,47.60
2018-09-28T19:49:38.424Z,47.70
2018-09-28T19:52:11.981Z,47.60
2018-09-28T19:54:45.583Z,47.80
2018-09-28T19:57:19.147Z,47.70
2018-09-28T19:59:52.645Z,47.60
2018-09-28T20:02:27.253Z,47.60
2018-09-28T20:05:01.695Z,47.70
2018-09-28T20:07:35.355Z,47.70
2018-09-28T20:10:08.941Z,48.00
2018-09-28T20:12:42.557Z,48.10
2018-09-28T20:15:17.226Z,48.00
2018-09-28T20:17:57.153Z,48.10
2018-09-28T20:20:30.866Z,48.30
2018-09-28T20:23:04.607Z,48.20
2018-09-28T20:25:44.497Z,48.20
2018-09-28T20:28:18.285Z,47.90
2018-09-28T20:30:52.801Z,48.20
2018-09-28T20:33:26.363Z,48.50
2018-09-28T20:36:06.216Z,48.60
2018-09-28T20:38:46.221Z,48.60
2018-09-28T20:41:20.005Z,48.60
2018-09-28T20:43:59.964Z,48.70
2018-09-28T20:46:33.977Z,48.70
2018-09-28T20:50:11.823Z,49.00
2018-09-28T20:52:45.269Z,49.00
2018-09-28T20:55:18.971Z,49.40
2018-09-28T20:57:52.510Z,49.50
2018-09-28T21:00:26.164Z,49.70
2018-09-28T21:02:59.905Z,49.80
2018-09-28T21:05:39.916Z,50.00
2018-09-28T21:08:13.669Z,50.10
2018-09-28T21:10:48.190Z,50.20
2018-09-28T21:13:28.269Z,50.20
2018-09-28T21:16:01.792Z,50.40
2018-09-28T21:18:35.394Z,50.60
2018-09-28T21:21:08.834Z,50.60
2018-09-28T21:23:42.457Z,50.40
2018-09-28T21:26:16.128Z,50.60
2018-09-28T21:28:50.627Z,50.50
2018-09-28T21:31:24.389Z,50.50
2018-09-28T21:33:58.076Z,51.50
2018-09-28T21:36:31.696Z,51.30
2018-09-28T21:39:07.239Z,51.20
2018-09-28T21:41:47.159Z,51.30
2018-09-28T21:44:20.740Z,51.40
2018-09-28T21:46:54.442Z,51.50
2018-09-28T21:49:28.013Z,52.20
2018-09-28T21:52:01.842Z,51.70
2018-09-28T21:54:35.398Z,51.80
2018-09-28T21:57:09.016Z,51.70
2018-09-28T21:59:42.498Z,52.10
2018-09-28T22:02:22.459Z,52.30
2018-09-28T22:04:56.188Z,52.40
2018-09-28T22:07:36.018Z,52.60
2018-09-28T22:10:09.554Z,52.70
2018-09-28T22:12:43.068Z,52.70
2018-09-28T22:15:16.932Z,52.70
2018-09-28T22:17:50.510Z,53.10
2018-09-28T22:20:24.163Z,54.10
2018-09-28T22:22:57.631Z,55.00
2018-09-28T22:25:31.359Z,55.10
2018-09-28T22:28:04.901Z,55.00
2018-09-28T22:30:41.429Z,54.80
2018-09-28T22:33:14.903Z,54.70
2018-09-28T22:35:48.519Z,54.50
2018-09-28T22:38:22.355Z,54.70
2018-09-28T22:40:56.099Z,54.60
2018-09-28T22:43:29.628Z,54.60
2018-09-28T22:46:03.347Z,54.80
2018-09-28T22:48:36.961Z,54.70
2018-09-28T22:51:17.219Z,54.70
2018-09-28T22:53:50.711Z,54.70
2018-09-28T22:56:31.600Z,55.40
2018-09-28T22:59:05.403Z,54.90
2018-09-28T23:01:45.479Z,55.00
2018-09-28T23:04:19.931Z,55.20
2018-09-28T23:06:53.495Z,54.90
2018-09-28T23:09:33.354Z,55.20
2018-09-28T23:12:08.017Z,54.80
2018-09-28T23:14:41.487Z,55.40
2018-09-28T23:17:15.124Z,55.40
2018-09-28T23:19:55.119Z,55.90
2018-09-28T23:22:34.819Z,55.50
2018-09-28T23:25:14.843Z,55.80
2018-09-28T23:27:48.354Z,55.60
2018-09-28T23:30:21.949Z,55.70
2018-09-28T23:32:55.420Z,55.80
2018-09-28T23:35:28.929Z,55.80
2018-09-28T23:38:02.530Z,55.70
2018-09-28T23:40:36.019Z,55.50
2018-09-28T23:43:15.887Z,55.60
2018-09-28T23:45:50.438Z,55.80
2018-09-28T23:48:24.884Z,56.00
2018-09-28T23:50:58.625Z,55.90
2018-09-28T23:53:32.227Z,56.10
2018-09-28T23:56:06.104Z,56.00
